Time;durP1;ratioP1;P1;durP2;ratioP2;P2;SDS_P1;SDS_P2;PMS_P1;PMS_P2;Temp;Humidity;BMP_temperature;BMP_pressure;BME280_temperature;BME280_humidity;BME280_pressure;Samples;Min_cycle;Max_cycle;Signal;HPM_P1;HPM_P2
2022/08/19 00:07:42;;;;;;;2.42;0.80;;;;;;;;;;21004690;28;20061;-58
2022/08/19 00:17:45;;;;;;;2.03;0.80;;;;;;;;;;21003780;28;20051;-57
2022/08/19 00:27:47;;;;;;;3.40;1.00;;;;;;;;;;21003257;28;20385;-58
2022/08/19 00:37:49;;;;;;;1.60;0.77;;;;;;;;;;21001802;28;20095;-55
2022/08/19 00:47:51;;;;;;;2.40;1.07;;;;;;;;;;21000832;28;20077;-55
2022/08/19 00:57:58;;;;;;;2.50;1.17;;;;;;;;;;21001275;28;20072;-58
2022/08/19 01:08:00;;;;;;;2.03;0.80;;;;;;;;;;20999485;28;20048;-56
2022/08/19 01:18:06;;;;;;;2.90;0.77;;;;;;;;;;20998121;28;20127;-58
2022/08/19 01:28:08;;;;;;;0.95;0.68;;;;;;;;;;20997327;28;20055;-57
2022/08/19 01:38:20;;;;;;;1.57;0.97;;;;;;;;;;20997314;28;20456;-54
2022/08/19 01:48:37;;;;;;;1.23;0.73;;;;;;;;;;20996887;28;20390;-53
2022/08/19 01:58:50;;;;;;;1.83;1.00;;;;;;;;;;20997170;28;20093;-56
2022/08/19 02:09:01;;;;;;;2.40;0.73;;;;;;;;;;20995406;28;20094;-56
2022/08/19 02:19:10;;;;;;;1.88;0.90;;;;;;;;;;20997207;28;20076;-56
2022/08/19 02:29:27;;;;;;;2.22;0.65;;;;;;;;;;21010141;28;20480;-55
2022/08/19 02:39:43;;;;;;;1.15;0.70;;;;;;;;;;21011314;28;20143;-56
2022/08/19 02:50:04;;;;;;;3.10;0.95;;;;;;;;;;21010123;28;20044;-56
2022/08/19 03:00:13;;;;;;;1.40;0.70;;;;;;;;;;21009218;28;20098;-57
2022/08/19 03:10:41;;;;;;;2.20;1.03;;;;;;;;;;21008660;28;20056;-55
2022/08/19 03:21:00;;;;;;;4.35;0.85;;;;;;;;;;21006438;28;20480;-56
2022/08/19 03:31:13;;;;;;;1.60;0.80;;;;;;;;;;21007489;28;20091;-55
2022/08/19 03:41:23;;;;;;;1.65;0.80;;;;;;;;;;21007693;28;20098;-57
2022/08/19 03:51:32;;;;;;;1.35;0.73;;;;;;;;;;21005569;28;20052;-58
2022/08/19 04:01:35;;;;;;;0.85;0.65;;;;;;;;;;21005572;28;20408;-56
2022/08/19 04:11:41;;;;;;;2.17;1.25;;;;;;;;;;21004594;28;20413;-57
2022/08/19 04:21:49;;;;;;;2.35;0.70;;;;;;;;;;21002326;28;20040;-54
2022/08/19 04:31:52;;;;;;;1.40;0.98;;;;;;;;;;21002391;28;20064;-57
2022/08/19 04:52:14;;;;;;;1.33;0.80;;;;;;;;;;21000124;28;19974;-56
2022/08/19 05:02:16;;;;;;;1.10;0.68;;;;;;;;;;20999837;28;20060;-56
2022/08/19 05:12:18;;;;;;;1.40;0.80;;;;;;;;;;20999120;28;20040;-57
2022/08/19 05:22:35;;;;;;;1.33;0.77;;;;;;;;;;20998761;28;20098;-58
2022/08/19 05:32:37;;;;;;;1.80;0.88;;;;;;;;;;20998497;28;20048;-58
2022/08/19 05:42:39;;;;;;;3.37;1.00;;;;;;;;;;20996909;28;20048;-58
2022/08/19 05:52:41;;;;;;;2.00;0.80;;;;;;;;;;20997096;28;20094;-58
2022/08/19 06:02:45;;;;;;;1.25;0.70;;;;;;;;;;20995431;28;20052;-58
2022/08/19 06:12:47;;;;;;;1.33;0.88;;;;;;;;;;20995952;28;20078;-55
2022/08/19 06:22:51;;;;;;;3.38;0.90;;;;;;;;;;20994835;28;20074;-57
2022/08/19 06:32:52;;;;;;;;;;;;;;;;;;20993872;28;20056;-58
2022/08/19 06:42:55;;;;;;;2.90;1.45;;;;;;;;;;20993948;28;19921;-57
2022/08/19 06:52:57;;;;;;;1.77;0.90;;;;;;;;;;20993880;28;20076;-56
2022/08/19 07:03:00;;;;;;;3.05;1.00;;;;;;;;;;20993341;28;20048;-55
2022/08/19 07:13:03;;;;;;;2.23;1.20;;;;;;;;;;21002411;28;20090;-61
2022/08/19 07:23:05;;;;;;;1.97;0.90;;;;;;;;;;21006582;28;20102;-57
2022/08/19 07:33:07;;;;;;;1.13;0.80;;;;;;;;;;21007678;28;20492;-55
2022/08/19 07:43:08;;;;;;;1.55;0.63;;;;;;;;;;21003830;28;20060;-54
2022/08/19 07:53:11;;;;;;;1.85;0.85;;;;;;;;;;21005736;28;20049;-57
2022/08/19 08:03:14;;;;;;;1.55;0.80;;;;;;;;;;21003610;28;20408;-55
2022/08/19 08:13:16;;;;;;;;;;;;;;;;;;21004362;28;20048;-57
2022/08/19 08:23:28;;;;;;;3.28;0.90;;;;;;;;;;21001481;28;19921;-54
2022/08/19 08:33:30;;;;;;;2.33;0.93;;;;;;;;;;21002473;28;20056;-53
2022/08/19 08:43:37;;;;;;;2.13;0.93;;;;;;;;;;21001606;28;20080;-54
2022/08/19 08:53:40;;;;;;;1.63;0.90;;;;;;;;;;20999284;28;20044;-55
2022/08/19 09:03:45;;;;;;;3.03;0.70;;;;;;;;;;20997810;28;20078;-58
2022/08/19 09:14:05;;;;;;;2.72;1.05;;;;;;;;;;20997159;28;20048;-58
2022/08/19 09:24:07;;;;;;;1.38;0.70;;;;;;;;;;20995271;28;20553;-55
2022/08/19 09:34:09;;;;;;;2.63;0.80;;;;;;;;;;20995319;28;20080;-55
2022/08/19 09:44:12;;;;;;;2.13;1.02;;;;;;;;;;20992089;28;20057;-59
2022/08/19 09:54:15;;;;;;;4.32;1.23;;;;;;;;;;20995973;28;20041;-56
2022/08/19 10:04:16;;;;;;;4.70;1.92;;;;;;;;;;20998757;28;20093;-62
2022/08/19 10:14:22;;;;;;;4.20;0.90;;;;;;;;;;20996711;28;20047;-59
2022/08/19 10:24:25;;;;;;;1.80;0.70;;;;;;;;;;20990990;28;20530;-56
2022/08/19 10:34:27;;;;;;;2.80;1.00;;;;;;;;;;20992016;28;20044;-59
2022/08/19 10:44:29;;;;;;;1.25;0.70;;;;;;;;;;20997155;28;20049;-54
2022/08/19 11:04:52;;;;;;;3.00;1.60;;;;;;;;;;21009296;28;19973;-60
2022/08/19 11:14:54;;;;;;;8.13;5.75;;;;;;;;;;21008261;28;20044;-59
2022/08/19 11:24:56;;;;;;;9.57;1.48;;;;;;;;;;21007145;28;20053;-55
2022/08/19 11:34:58;;;;;;;;;;;;;;;;;;21007441;28;20506;-58
2022/08/19 11:45:00;;;;;;;1.30;0.80;;;;;;;;;;21006038;28;19921;-56
2022/08/19 11:55:02;;;;;;;2.15;1.00;;;;;;;;;;21003848;28;20049;-57
2022/08/19 12:05:05;;;;;;;2.05;1.10;;;;;;;;;;21005727;28;20044;-60
2022/08/19 12:15:07;;;;;;;2.33;0.88;;;;;;;;;;21004199;28;20048;-59
2022/08/19 12:25:11;;;;;;;2.22;0.70;;;;;;;;;;21003851;28;20486;-59
2022/08/19 12:35:16;;;;;;;2.40;0.90;;;;;;;;;;21003085;28;20098;-58
2022/08/19 12:45:18;;;;;;;3.42;1.40;;;;;;;;;;21001791;28;20133;-59
2022/08/19 12:55:20;;;;;;;2.83;0.90;;;;;;;;;;21000786;28;20119;-56
2022/08/19 13:05:27;;;;;;;3.22;0.82;;;;;;;;;;21000703;28;20048;-58
2022/08/19 13:15:30;;;;;;;3.22;2.15;;;;;;;;;;20999246;28;20127;-57
2022/08/19 13:25:33;;;;;;;5.57;2.70;;;;;;;;;;20998873;28;20105;-58
2022/08/19 13:35:35;;;;;;;1.70;0.90;;;;;;;;;;20998438;28;20040;-57
2022/08/19 13:45:37;;;;;;;1.40;0.70;;;;;;;;;;20996603;28;20147;-57
2022/08/19 13:55:41;;;;;;;5.32;3.58;;;;;;;;;;20995232;28;20044;-57
2022/08/19 14:05:46;;;;;;;3.35;2.00;;;;;;;;;;20995856;28;20049;-57
2022/08/19 14:15:48;;;;;;;1.30;0.82;;;;;;;;;;20996454;28;20421;-56
2022/08/19 14:25:50;;;;;;;2.33;1.23;;;;;;;;;;20994314;28;20052;-57
2022/08/19 14:35:52;;;;;;;3.35;0.98;;;;;;;;;;20995097;28;20427;-56
2022/08/19 14:45:54;;;;;;;2.10;0.90;;;;;;;;;;20995107;28;20500;-57
2022/08/19 14:55:56;;;;;;;2.83;0.80;;;;;;;;;;20994973;28;20044;-58
2022/08/19 15:05:58;;;;;;;2.40;1.10;;;;;;;;;;20994140;28;20091;-60
2022/08/19 15:16:01;;;;;;;2.22;0.98;;;;;;;;;;20996414;28;20048;-59
2022/08/19 15:26:05;;;;;;;1.95;0.80;;;;;;;;;;20992944;28;20057;-58
2022/08/19 15:36:07;;;;;;;2.50;1.20;;;;;;;;;;21006395;28;20105;-59
2022/08/19 15:46:09;;;;;;;2.53;1.45;;;;;;;;;;21006465;28;20143;-57
2022/08/19 15:56:12;;;;;;;4.07;1.00;;;;;;;;;;21005995;28;20051;-57
2022/08/19 16:06:26;;;;;;;2.75;1.00;;;;;;;;;;21005233;28;20101;-59
2022/08/19 16:16:32;;;;;;;4.65;1.38;;;;;;;;;;21004723;28;20419;-59
2022/08/19 16:26:34;;;;;;;2.63;1.33;;;;;;;;;;21003606;28;20049;-59
2022/08/19 16:36:39;;;;;;;2.65;1.20;;;;;;;;;;21004098;28;20086;-58
2022/08/19 16:46:41;;;;;;;2.15;1.20;;;;;;;;;;21001000;28;20052;-59
2022/08/19 16:56:43;;;;;;;2.25;1.25;;;;;;;;;;20999698;28;20063;-59
2022/08/19 17:06:46;;;;;;;2.47;1.40;;;;;;;;;;20999969;28;20086;-58
2022/08/19 17:16:48;;;;;;;3.15;2.42;;;;;;;;;;20999160;28;20539;-58
2022/08/19 17:26:51;;;;;;;3.90;2.83;;;;;;;;;;20996830;28;20053;-60
2022/08/19 17:36:55;;;;;;;2.13;1.20;;;;;;;;;;20997100;28;20070;-60
2022/08/19 17:46:57;;;;;;;2.10;1.70;;;;;;;;;;20995393;28;20534;-60
2022/08/19 17:56:59;;;;;;;2.17;1.20;;;;;;;;;;20996072;28;20135;-57
2022/08/19 18:07:03;;;;;;;3.80;1.38;;;;;;;;;;20995794;28;20048;-57
2022/08/19 18:17:08;;;;;;;5.60;1.17;;;;;;;;;;20995669;28;20076;-61
2022/08/19 18:27:10;;;;;;;2.70;1.65;;;;;;;;;;20994505;28;20119;-59
2022/08/19 18:37:12;;;;;;;2.38;1.50;;;;;;;;;;20994260;28;20131;-61
2022/08/19 18:57:35;;;;;;;5.63;4.67;;;;;;;;;;20993285;28;20051;-58
2022/08/19 19:07:38;;;;;;;6.00;4.20;;;;;;;;;;21000404;28;20049;-61
2022/08/19 19:17:40;;;;;;;11.55;7.97;;;;;;;;;;21008701;28;20049;-59
2022/08/19 19:27:42;;;;;;;9.70;5.00;;;;;;;;;;21007611;28;20105;-57
2022/08/19 19:37:50;;;;;;;8.05;4.38;;;;;;;;;;21006945;28;20397;-60
2022/08/19 19:47:52;;;;;;;14.52;10.02;;;;;;;;;;21005802;28;20527;-57
2022/08/19 19:57:56;;;;;;;13.02;6.82;;;;;;;;;;21003689;28;20553;-58
2022/08/19 20:18:19;;;;;;;15.30;10.63;;;;;;;;;;21003502;28;20084;-59
2022/08/19 20:28:22;;;;;;;8.23;5.35;;;;;;;;;;21003556;28;20320;-61
2022/08/19 20:38:24;;;;;;;10.68;5.18;;;;;;;;;;21001833;28;20052;-59
2022/08/19 20:48:26;;;;;;;11.05;6.15;;;;;;;;;;21002379;28;20499;-61
2022/08/19 20:58:28;;;;;;;11.80;5.95;;;;;;;;;;21001605;28;20044;-61
2022/08/19 21:08:30;;;;;;;6.78;4.97;;;;;;;;;;21001787;28;20056;-60
2022/08/19 21:18:34;;;;;;;6.82;4.43;;;;;;;;;;20999597;28;20059;-61
2022/08/19 21:28:36;;;;;;;8.02;4.60;;;;;;;;;;20999106;28;20408;-58
2022/08/19 21:38:38;;;;;;;8.55;3.85;;;;;;;;;;20998947;28;20076;-61
2022/08/19 21:48:41;;;;;;;6.57;3.38;;;;;;;;;;20997646;28;20052;-57
2022/08/19 21:58:43;;;;;;;;;;;;;;;;;;20997809;28;20055;-58
2022/08/19 22:08:45;;;;;;;6.00;3.92;;;;;;;;;;20998274;28;20367;-60
2022/08/19 22:18:49;;;;;;;8.23;2.90;;;;;;;;;;20997160;28;20051;-60
2022/08/19 22:28:52;;;;;;;5.47;2.90;;;;;;;;;;20996001;28;20053;-57
2022/08/19 22:38:54;;;;;;;6.25;2.13;;;;;;;;;;20997865;28;20123;-60
2022/08/19 22:48:57;;;;;;;4.78;2.47;;;;;;;;;;21011521;28;20048;-56
2022/08/19 22:58:58;;;;;;;3.38;1.52;;;;;;;;;;21010756;28;20054;-56
2022/08/19 23:09:01;;;;;;;3.05;1.70;;;;;;;;;;21011009;28;20480;-57
2022/08/19 23:19:03;;;;;;;5.53;1.85;;;;;;;;;;21009950;28;20049;-57
2022/08/19 23:39:28;;;;;;;6.88;3.20;;;;;;;;;;21006605;28;20084;-57
2022/08/19 23:49:30;;;;;;;3.60;2.15;;;;;;;;;;21005224;28;20128;-57
2022/08/19 23:59:32;;;;;;;2.58;1.27;;;;;;;;;;21012616;28;20052;-57
